sensor_id;sensor_type;location;lat;lon;timestamp;pressure;altitude;pressure_sealevel;temperature
45034;BMP280;30771;47.988;-4.186;2022-07-01T06:01:01;100827.63;;;12.96
45034;BMP280;30771;47.988;-4.186;2022-07-01T06:03:26;100830.44;;;13.01
45034;BMP280;30771;47.988;-4.186;2022-07-01T06:05:51;100827.97;;;13.06
45034;BMP280;30771;47.988;-4.186;2022-07-01T06:08:16;100826.78;;;13.09
45034;BMP280;30771;47.988;-4.186;2022-07-01T06:10:42;100823.06;;;13.16
45034;BMP280;30771;47.988;-4.186;2022-07-01T06:13:07;100825.28;;;13.26
45034;BMP280;30771;47.988;-4.186;2022-07-01T06:15:32;100817.69;;;13.29
45034;BMP280;30771;47.988;-4.186;2022-07-01T06:17:58;100828.50;;;13.35
45034;BMP280;30771;47.988;-4.186;2022-07-01T06:20:23;100823.81;;;13.37
45034;BMP280;30771;47.988;-4.186;2022-07-01T06:22:48;100816.25;;;13.40
45034;BMP280;30771;47.988;-4.186;2022-07-01T06:25:14;100828.25;;;13.43
45034;BMP280;30771;47.988;-4.186;2022-07-01T06:27:40;100832.31;;;13.45
45034;BMP280;30771;47.988;-4.186;2022-07-01T06:30:06;100840.22;;;13.52
45034;BMP280;30771;47.988;-4.186;2022-07-01T06:32:31;100833.44;;;13.62
45034;BMP280;30771;47.988;-4.186;2022-07-01T06:34:57;100840.13;;;13.71
45034;BMP280;30771;47.988;-4.186;2022-07-01T06:37:22;100840.28;;;13.76
45034;BMP280;30771;47.988;-4.186;2022-07-01T06:39:47;100839.63;;;13.87
45034;BMP280;30771;47.988;-4.186;2022-07-01T06:42:12;100840.50;;;14.06
45034;BMP280;30771;47.988;-4.186;2022-07-01T06:44:38;100840.44;;;14.19
45034;BMP280;30771;47.988;-4.186;2022-07-01T06:47:03;100852.53;;;14.33
45034;BMP280;30771;47.988;-4.186;2022-07-01T06:49:28;100834.91;;;14.45
45034;BMP280;30771;47.988;-4.186;2022-07-01T06:51:54;100852.59;;;14.69
45034;BMP280;30771;47.988;-4.186;2022-07-01T06:54:19;100854.72;;;14.85
45034;BMP280;30771;47.988;-4.186;2022-07-01T06:56:45;100864.56;;;15.14
45034;BMP280;30771;47.988;-4.186;2022-07-01T06:59:10;100867.28;;;15.44
45034;BMP280;30771;47.988;-4.186;2022-07-01T07:01:35;100859.50;;;15.60
45034;BMP280;30771;47.988;-4.186;2022-07-01T07:04:01;100862.72;;;15.92
45034;BMP280;30771;47.988;-4.186;2022-07-01T07:06:26;100868.66;;;16.17
45034;BMP280;30771;47.988;-4.186;2022-07-01T07:08:51;100865.44;;;16.38
45034;BMP280;30771;47.988;-4.186;2022-07-01T07:11:16;100867.19;;;16.56
45034;BMP280;30771;47.988;-4.186;2022-07-01T07:13:42;100865.22;;;16.74
45034;BMP280;30771;47.988;-4.186;2022-07-01T07:16:08;100867.41;;;16.89
45034;BMP280;30771;47.988;-4.186;2022-07-01T07:18:34;100859.06;;;17.09
45034;BMP280;30771;47.988;-4.186;2022-07-01T07:20:59;100871.66;;;17.41
45034;BMP280;30771;47.988;-4.186;2022-07-01T07:23:25;100876.53;;;17.61
45034;BMP280;30771;47.988;-4.186;2022-07-01T07:25:50;100872.19;;;17.55
45034;BMP280;30771;47.988;-4.186;2022-07-01T07:28:15;100890.78;;;17.66
45034;BMP280;30771;47.988;-4.186;2022-07-01T07:30:41;100900.94;;;17.69
45034;BMP280;30771;47.988;-4.186;2022-07-01T07:33:06;100873.03;;;17.72
45034;BMP280;30771;47.988;-4.186;2022-07-01T07:35:31;100892.97;;;18.02
45034;BMP280;30771;47.988;-4.186;2022-07-01T07:37:57;100911.50;;;18.25
45034;BMP280;30771;47.988;-4.186;2022-07-01T07:40:22;100919.50;;;18.25
45034;BMP280;30771;47.988;-4.186;2022-07-01T07:42:48;100906.53;;;18.34
45034;BMP280;30771;47.988;-4.186;2022-07-01T07:45:14;100884.00;;;18.42
45034;BMP280;30771;47.988;-4.186;2022-07-01T07:47:44;100915.03;;;18.48
45034;BMP280;30771;47.988;-4.186;2022-07-01T07:50:11;100901.16;;;18.12
45034;BMP280;30771;47.988;-4.186;2022-07-01T07:52:37;100901.13;;;17.96
45034;BMP280;30771;47.988;-4.186;2022-07-01T07:55:03;100917.75;;;17.86
45034;BMP280;30771;47.988;-4.186;2022-07-01T07:57:28;100926.38;;;17.77
45034;BMP280;30771;47.988;-4.186;2022-07-01T07:59:54;100917.50;;;17.71
45034;BMP280;30771;47.988;-4.186;2022-07-01T08:02:19;100882.06;;;17.71
45034;BMP280;30771;47.988;-4.186;2022-07-01T08:04:45;100912.69;;;18.34
45034;BMP280;30771;47.988;-4.186;2022-07-01T08:07:10;100913.44;;;18.47
45034;BMP280;30771;47.988;-4.186;2022-07-01T08:09:35;100916.97;;;18.52
45034;BMP280;30771;47.988;-4.186;2022-07-01T08:12:02;100909.22;;;18.34
45034;BMP280;30771;47.988;-4.186;2022-07-01T08:14:27;100916.34;;;18.28
45034;BMP280;30771;47.988;-4.186;2022-07-01T08:16:53;100922.53;;;18.34
45034;BMP280;30771;47.988;-4.186;2022-07-01T08:19:18;100929.19;;;18.31
45034;BMP280;30771;47.988;-4.186;2022-07-01T08:21:43;100923.19;;;18.24
45034;BMP280;30771;47.988;-4.186;2022-07-01T08:24:09;100897.63;;;18.23
45034;BMP280;30771;47.988;-4.186;2022-07-01T08:26:34;100913.38;;;18.63
45034;BMP280;30771;47.988;-4.186;2022-07-01T08:28:59;100914.53;;;18.67
45034;BMP280;30771;47.988;-4.186;2022-07-01T08:31:25;100927.78;;;18.62
45034;BMP280;30771;47.988;-4.186;2022-07-01T08:33:50;100906.25;;;18.30
45034;BMP280;30771;47.988;-4.186;2022-07-01T08:36:15;100906.66;;;18.22
45034;BMP280;30771;47.988;-4.186;2022-07-01T08:38:41;100932.09;;;18.30
45034;BMP280;30771;47.988;-4.186;2022-07-01T08:41:06;100922.66;;;18.22
45034;BMP280;30771;47.988;-4.186;2022-07-01T08:43:33;100926.13;;;18.23
45034;BMP280;30771;47.988;-4.186;2022-07-01T08:46:00;100919.88;;;18.67
45034;BMP280;30771;47.988;-4.186;2022-07-01T08:48:25;100912.75;;;19.16
45034;BMP280;30771;47.988;-4.186;2022-07-01T08:50:51;100919.59;;;19.55
45034;BMP280;30771;47.988;-4.186;2022-07-01T08:53:16;100920.16;;;19.83
45034;BMP280;30771;47.988;-4.186;2022-07-01T08:55:42;100923.25;;;20.02
45034;BMP280;30771;47.988;-4.186;2022-07-01T08:58:07;100914.53;;;20.17
45034;BMP280;30771;47.988;-4.186;2022-07-01T09:00:32;100918.72;;;20.44
45034;BMP280;30771;47.988;-4.186;2022-07-01T09:05:26;100934.75;;;20.44
45034;BMP280;30771;47.988;-4.186;2022-07-01T09:08:03;100934.88;;;20.23
45034;BMP280;30771;47.988;-4.186;2022-07-01T09:10:30;100924.00;;;19.98
45034;BMP280;30771;47.988;-4.186;2022-07-01T09:12:56;100914.59;;;20.27
45034;BMP280;30771;47.988;-4.186;2022-07-01T09:17:55;100910.63;;;20.86
45034;BMP280;30771;47.988;-4.186;2022-07-01T09:20:25;100914.75;;;21.13
45034;BMP280;30771;47.988;-4.186;2022-07-01T09:23:06;100918.06;;;21.45
45034;BMP280;30771;47.988;-4.186;2022-07-01T09:25:38;100923.16;;;21.67
45034;BMP280;30771;47.988;-4.186;2022-07-01T09:28:09;100930.16;;;21.78
45034;BMP280;30771;47.988;-4.186;2022-07-01T09:30:36;100941.13;;;21.56
45034;BMP280;30771;47.988;-4.186;2022-07-01T09:33:16;100943.41;;;21.13
45034;BMP280;30771;47.988;-4.186;2022-07-01T09:35:44;100941.28;;;21.20
45034;BMP280;30771;47.988;-4.186;2022-07-01T09:38:12;100944.00;;;21.15
45034;BMP280;30771;47.988;-4.186;2022-07-01T09:40:52;100937.84;;;21.29
45034;BMP280;30771;47.988;-4.186;2022-07-01T09:43:25;100936.31;;;21.79
45034;BMP280;30771;47.988;-4.186;2022-07-01T09:48:22;100939.00;;;21.79
45034;BMP280;30771;47.988;-4.186;2022-07-01T09:50:47;100950.50;;;21.49
45034;BMP280;30771;47.988;-4.186;2022-07-01T09:53:13;100945.66;;;21.41
45034;BMP280;30771;47.988;-4.186;2022-07-01T09:55:38;100935.25;;;21.69
45034;BMP280;30771;47.988;-4.186;2022-07-01T09:58:04;100933.09;;;22.17
45034;BMP280;30771;47.988;-4.186;2022-07-01T10:00:31;100939.72;;;22.49
45034;BMP280;30771;47.988;-4.186;2022-07-01T10:02:57;100934.63;;;22.33
45034;BMP280;30771;47.988;-4.186;2022-07-01T10:05:23;100948.88;;;22.43
45034;BMP280;30771;47.988;-4.186;2022-07-01T10:10:51;100940.75;;;22.68
45034;BMP280;30771;47.988;-4.186;2022-07-01T10:13:23;100940.38;;;22.90
45034;BMP280;30771;47.988;-4.186;2022-07-01T10:15:49;100941.19;;;22.85
45034;BMP280;30771;47.988;-4.186;2022-07-01T10:18:24;100948.00;;;22.68
45034;BMP280;30771;47.988;-4.186;2022-07-01T10:20:50;100963.41;;;22.12
45034;BMP280;30771;47.988;-4.186;2022-07-01T10:23:19;100969.25;;;21.49
45034;BMP280;30771;47.988;-4.186;2022-07-01T10:28:57;100945.19;;;22.09
45034;BMP280;30771;47.988;-4.186;2022-07-01T10:31:35;100956.94;;;22.38
45034;BMP280;30771;47.988;-4.186;2022-07-01T10:34:02;100959.13;;;21.86
45034;BMP280;30771;47.988;-4.186;2022-07-01T10:36:34;100963.41;;;21.92
45034;BMP280;30771;47.988;-4.186;2022-07-01T10:41:26;100959.09;;;22.06
45034;BMP280;30771;47.988;-4.186;2022-07-01T10:43:53;100959.09;;;22.11
45034;BMP280;30771;47.988;-4.186;2022-07-01T10:46:45;100964.44;;;22.41
45034;BMP280;30771;47.988;-4.186;2022-07-01T10:49:19;100970.63;;;22.37
45034;BMP280;30771;47.988;-4.186;2022-07-01T10:51:53;100984.88;;;21.92
45034;BMP280;30771;47.988;-4.186;2022-07-01T11:07:33;100965.25;;;22.22
45034;BMP280;30771;47.988;-4.186;2022-07-01T11:10:02;100968.47;;;22.39
45034;BMP280;30771;47.988;-4.186;2022-07-01T11:12:28;100959.59;;;22.53
45034;BMP280;30771;47.988;-4.186;2022-07-01T11:14:55;100969.47;;;22.73
45034;BMP280;30771;47.988;-4.186;2022-07-01T11:17:21;100960.56;;;22.82
45034;BMP280;30771;47.988;-4.186;2022-07-01T11:19:50;100954.56;;;23.00
45034;BMP280;30771;47.988;-4.186;2022-07-01T11:22:24;100952.25;;;23.32
45034;BMP280;30771;47.988;-4.186;2022-07-01T11:24:54;100962.22;;;23.32
45034;BMP280;30771;47.988;-4.186;2022-07-01T11:27:20;100948.78;;;23.32
45034;BMP280;30771;47.988;-4.186;2022-07-01T11:29:45;100959.94;;;23.49
45034;BMP280;30771;47.988;-4.186;2022-07-01T11:32:11;100950.41;;;23.66
45034;BMP280;30771;47.988;-4.186;2022-07-01T11:34:37;100953.75;;;23.82
45034;BMP280;30771;47.988;-4.186;2022-07-01T11:37:09;100940.47;;;23.96
45034;BMP280;30771;47.988;-4.186;2022-07-01T11:39:35;100947.88;;;24.04
45034;BMP280;30771;47.988;-4.186;2022-07-01T11:42:03;100960.03;;;24.01
45034;BMP280;30771;47.988;-4.186;2022-07-01T11:44:33;100954.41;;;23.98
45034;BMP280;30771;47.988;-4.186;2022-07-01T11:47:00;100954.59;;;23.77
45034;BMP280;30771;47.988;-4.186;2022-07-01T11:49:26;100947.53;;;23.53
45034;BMP280;30771;47.988;-4.186;2022-07-01T11:52:01;100967.75;;;23.40
45034;BMP280;30771;47.988;-4.186;2022-07-01T11:54:27;100972.53;;;23.10
45034;BMP280;30771;47.988;-4.186;2022-07-01T11:56:52;100975.63;;;22.78
45034;BMP280;30771;47.988;-4.186;2022-07-01T11:59:18;100974.25;;;22.91
45034;BMP280;30771;47.988;-4.186;2022-07-01T12:01:53;100978.53;;;22.82
45034;BMP280;30771;47.988;-4.186;2022-07-01T12:04:19;100967.50;;;22.93
45034;BMP280;30771;47.988;-4.186;2022-07-01T12:06:46;100980.84;;;23.08
45034;BMP280;30771;47.988;-4.186;2022-07-01T12:09:13;100984.91;;;23.06
45034;BMP280;30771;47.988;-4.186;2022-07-01T12:11:38;100980.84;;;23.08
45034;BMP280;30771;47.988;-4.186;2022-07-01T12:14:04;100965.41;;;23.34
45034;BMP280;30771;47.988;-4.186;2022-07-01T12:16:38;100974.75;;;23.46
45034;BMP280;30771;47.988;-4.186;2022-07-01T12:19:03;100972.22;;;23.55
45034;BMP280;30771;47.988;-4.186;2022-07-01T12:21:31;100979.69;;;23.68
45034;BMP280;30771;47.988;-4.186;2022-07-01T12:24:13;100977.78;;;23.73
45034;BMP280;30771;47.988;-4.186;2022-07-01T12:26:47;100964.72;;;23.91
45034;BMP280;30771;47.988;-4.186;2022-07-01T12:29:13;100962.09;;;23.80
45034;BMP280;30771;47.988;-4.186;2022-07-01T12:31:41;100963.63;;;23.92
45034;BMP280;30771;47.988;-4.186;2022-07-01T12:34:07;100962.47;;;24.03
45034;BMP280;30771;47.988;-4.186;2022-07-01T12:36:32;100964.00;;;24.09
45034;BMP280;30771;47.988;-4.186;2022-07-01T12:39:05;100958.53;;;23.90
45034;BMP280;30771;47.988;-4.186;2022-07-01T12:41:33;100975.25;;;23.48
45034;BMP280;30771;47.988;-4.186;2022-07-01T12:44:00;100986.59;;;22.87
45034;BMP280;30771;47.988;-4.186;2022-07-01T12:46:30;100996.63;;;22.56
45034;BMP280;30771;47.988;-4.186;2022-07-01T12:48:56;100993.16;;;22.41
45034;BMP280;30771;47.988;-4.186;2022-07-01T12:51:28;100985.03;;;22.71
45034;BMP280;30771;47.988;-4.186;2022-07-01T12:53:54;100979.81;;;22.99
45034;BMP280;30771;47.988;-4.186;2022-07-01T12:56:29;100971.13;;;23.22
45034;BMP280;30771;47.988;-4.186;2022-07-01T12:58:54;100972.47;;;23.25
45034;BMP280;30771;47.988;-4.186;2022-07-01T13:01:21;100969.47;;;23.31
45034;BMP280;30771;47.988;-4.186;2022-07-01T13:03:46;100957.25;;;23.49
45034;BMP280;30771;47.988;-4.186;2022-07-01T13:06:12;100948.66;;;23.80
45034;BMP280;30771;47.988;-4.186;2022-07-01T13:08:37;100958.28;;;23.86
45034;BMP280;30771;47.988;-4.186;2022-07-01T13:11:03;100958.66;;;23.75
45034;BMP280;30771;47.988;-4.186;2022-07-01T13:13:28;100959.19;;;23.72
45034;BMP280;30771;47.988;-4.186;2022-07-01T13:15:54;100968.22;;;23.52
45034;BMP280;30771;47.988;-4.186;2022-07-01T13:18:19;100968.97;;;23.24
45034;BMP280;30771;47.988;-4.186;2022-07-01T13:20:44;100975.66;;;23.27
45034;BMP280;30771;47.988;-4.186;2022-07-01T13:23:10;100971.22;;;23.02
45034;BMP280;30771;47.988;-4.186;2022-07-01T13:25:35;100973.06;;;23.07
45034;BMP280;30771;47.988;-4.186;2022-07-01T13:28:01;100973.44;;;22.90
45034;BMP280;30771;47.988;-4.186;2022-07-01T13:30:26;100968.88;;;22.91
45034;BMP280;30771;47.988;-4.186;2022-07-01T13:32:51;100961.31;;;22.93
45034;BMP280;30771;47.988;-4.186;2022-07-01T13:35:18;100985.53;;;22.78
45034;BMP280;30771;47.988;-4.186;2022-07-01T13:37:43;100971.47;;;23.01
45034;BMP280;30771;47.988;-4.186;2022-07-01T13:40:09;100983.34;;;22.95
45034;BMP280;30771;47.988;-4.186;2022-07-01T13:42:34;100988.78;;;22.80
45034;BMP280;30771;47.988;-4.186;2022-07-01T13:44:59;100983.63;;;22.93
45034;BMP280;30771;47.988;-4.186;2022-07-01T13:47:25;100984.56;;;23.22
45034;BMP280;30771;47.988;-4.186;2022-07-01T13:49:50;100987.13;;;23.42
45034;BMP280;30771;47.988;-4.186;2022-07-01T13:52:15;100988.97;;;23.47
45034;BMP280;30771;47.988;-4.186;2022-07-01T13:54:41;100991.28;;;23.25
45034;BMP280;30771;47.988;-4.186;2022-07-01T13:57:06;100995.53;;;23.26
45034;BMP280;30771;47.988;-4.186;2022-07-01T13:59:31;100988.78;;;23.38
45034;BMP280;30771;47.988;-4.186;2022-07-01T14:01:58;101003.28;;;23.37
45034;BMP280;30771;47.988;-4.186;2022-07-01T14:04:23;101007.25;;;23.45
45034;BMP280;30771;47.988;-4.186;2022-07-01T14:06:48;101002.97;;;23.49
45034;BMP280;30771;47.988;-4.186;2022-07-01T14:09:14;101012.91;;;23.43
45034;BMP280;30771;47.988;-4.186;2022-07-01T14:11:39;101017.22;;;23.44
45034;BMP280;30771;47.988;-4.186;2022-07-01T14:14:04;101022.72;;;23.19
45034;BMP280;30771;47.988;-4.186;2022-07-01T14:16:30;101026.97;;;23.30
45034;BMP280;30771;47.988;-4.186;2022-07-01T14:18:56;101027.38;;;22.99
45034;BMP280;30771;47.988;-4.186;2022-07-01T14:21:22;101016.94;;;22.87
45034;BMP280;30771;47.988;-4.186;2022-07-01T14:23:47;101025.31;;;22.76
45034;BMP280;30771;47.988;-4.186;2022-07-01T14:26:13;101019.94;;;22.76
45034;BMP280;30771;47.988;-4.186;2022-07-01T14:28:38;101015.03;;;22.93
45034;BMP280;30771;47.988;-4.186;2022-07-01T14:31:03;101023.34;;;23.01
45034;BMP280;30771;47.988;-4.186;2022-07-01T14:33:29;101021.47;;;22.97
45034;BMP280;30771;47.988;-4.186;2022-07-01T14:35:54;101030.06;;;22.94
45034;BMP280;30771;47.988;-4.186;2022-07-01T14:38:19;101047.38;;;22.58
45034;BMP280;30771;47.988;-4.186;2022-07-01T14:40:45;101047.09;;;22.29
45034;BMP280;30771;47.988;-4.186;2022-07-01T14:43:10;101036.38;;;22.34
45034;BMP280;30771;47.988;-4.186;2022-07-01T14:45:36;101026.97;;;22.52
45034;BMP280;30771;47.988;-4.186;2022-07-01T14:48:02;101032.88;;;22.44
45034;BMP280;30771;47.988;-4.186;2022-07-01T14:50:27;101039.06;;;22.44
45034;BMP280;30771;47.988;-4.186;2022-07-01T14:52:52;101038.78;;;22.31
45034;BMP280;30771;47.988;-4.186;2022-07-01T14:55:18;101032.06;;;22.33
45034;BMP280;30771;47.988;-4.186;2022-07-01T14:57:43;101035.81;;;22.37
45034;BMP280;30771;47.988;-4.186;2022-07-01T15:00:09;101030.72;;;22.56
45034;BMP280;30771;47.988;-4.186;2022-07-01T15:02:36;101032.56;;;22.75
45034;BMP280;30771;47.988;-4.186;2022-07-01T15:05:02;101027.25;;;22.50
45034;BMP280;30771;47.988;-4.186;2022-07-01T15:07:27;101031.25;;;22.18
45034;BMP280;30771;47.988;-4.186;2022-07-01T15:09:52;101025.13;;;22.27
45034;BMP280;30771;47.988;-4.186;2022-07-01T15:12:18;101022.41;;;22.37
45034;BMP280;30771;47.988;-4.186;2022-07-01T15:14:44;101028.31;;;22.44
45034;BMP280;30771;47.988;-4.186;2022-07-01T15:17:09;101024.81;;;22.54
45034;BMP280;30771;47.988;-4.186;2022-07-01T15:19:34;101029.63;;;22.57
45034;BMP280;30771;47.988;-4.186;2022-07-01T15:21:59;101019.44;;;22.44
45034;BMP280;30771;47.988;-4.186;2022-07-01T15:24:25;101023.47;;;22.36
45034;BMP280;30771;47.988;-4.186;2022-07-01T15:26:52;101019.72;;;22.37
45034;BMP280;30771;47.988;-4.186;2022-07-01T15:29:17;101018.38;;;22.50
45034;BMP280;30771;47.988;-4.186;2022-07-01T15:31:43;101029.38;;;22.58
45034;BMP280;30771;47.988;-4.186;2022-07-01T15:34:08;101022.16;;;22.24
45034;BMP280;30771;47.988;-4.186;2022-07-01T15:36:33;101022.16;;;22.04
45034;BMP280;30771;47.988;-4.186;2022-07-01T15:38:59;101019.47;;;22.19
45034;BMP280;30771;47.988;-4.186;2022-07-01T15:41:24;101020.00;;;22.41
45034;BMP280;30771;47.988;-4.186;2022-07-01T15:43:50;101015.97;;;22.43
45034;BMP280;30771;47.988;-4.186;2022-07-01T15:46:15;101003.56;;;22.62
45034;BMP280;30771;47.988;-4.186;2022-07-01T15:48:40;101010.81;;;22.77
45034;BMP280;30771;47.988;-4.186;2022-07-01T15:51:05;101001.09;;;22.86
45034;BMP280;30771;47.988;-4.186;2022-07-01T15:53:31;101017.50;;;22.74
45034;BMP280;30771;47.988;-4.186;2022-07-01T15:55:56;101018.63;;;22.68
45034;BMP280;30771;47.988;-4.186;2022-07-01T15:58:22;101021.06;;;22.55
45034;BMP280;30771;47.988;-4.186;2022-07-01T16:00:48;101019.19;;;22.45
45034;BMP280;30771;47.988;-4.186;2022-07-01T16:03:14;101017.00;;;22.62
45034;BMP280;30771;47.988;-4.186;2022-07-01T16:05:44;101011.06;;;22.70
45034;BMP280;30771;47.988;-4.186;2022-07-01T16:08:18;101024.81;;;22.54
45034;BMP280;30771;47.988;-4.186;2022-07-01T16:10:45;101035.31;;;22.35
45034;BMP280;30771;47.988;-4.186;2022-07-01T16:13:13;101025.34;;;22.41
45034;BMP280;30771;47.988;-4.186;2022-07-01T16:15:40;101021.03;;;22.45
45034;BMP280;30771;47.988;-4.186;2022-07-01T16:18:10;101021.59;;;22.52
45034;BMP280;30771;47.988;-4.186;2022-07-01T16:20:41;101020.47;;;22.78
45034;BMP280;30771;47.988;-4.186;2022-07-01T16:23:09;101019.94;;;22.71
45034;BMP280;30771;47.988;-4.186;2022-07-01T16:25:37;101023.16;;;22.78
45034;BMP280;30771;47.988;-4.186;2022-07-01T16:28:03;101035.78;;;22.72
45034;BMP280;30771;47.988;-4.186;2022-07-01T16:30:29;101034.75;;;22.53
45034;BMP280;30771;47.988;-4.186;2022-07-01T16:32:54;101028.84;;;22.41
45034;BMP280;30771;47.988;-4.186;2022-07-01T16:35:20;101036.09;;;22.01
45034;BMP280;30771;47.988;-4.186;2022-07-01T16:37:52;101039.56;;;21.86
45034;BMP280;30771;47.988;-4.186;2022-07-01T16:40:23;101028.56;;;21.88
45034;BMP280;30771;47.988;-4.186;2022-07-01T16:42:49;101024.56;;;22.20
45034;BMP280;30771;47.988;-4.186;2022-07-01T16:45:15;101027.50;;;22.44
45034;BMP280;30771;47.988;-4.186;2022-07-01T16:47:42;101030.97;;;22.64
45034;BMP280;30771;47.988;-4.186;2022-07-01T16:50:13;101022.31;;;22.77
45034;BMP280;30771;47.988;-4.186;2022-07-01T16:52:41;101023.69;;;22.70
45034;BMP280;30771;47.988;-4.186;2022-07-01T16:55:11;101012.13;;;22.84
45034;BMP280;30771;47.988;-4.186;2022-07-01T16:57:45;101010.16;;;23.10
45034;BMP280;30771;47.988;-4.186;2022-07-01T17:00:13;100999.16;;;23.06
45034;BMP280;30771;47.988;-4.186;2022-07-01T17:02:39;101012.59;;;23.06
45034;BMP280;30771;47.988;-4.186;2022-07-01T17:05:05;101019.09;;;22.90
45034;BMP280;30771;47.988;-4.186;2022-07-01T17:07:31;101032.88;;;22.44
45034;BMP280;30771;47.988;-4.186;2022-07-01T17:09:59;101027.50;;;22.29
45034;BMP280;30771;47.988;-4.186;2022-07-01T17:12:24;101035.31;;;22.15
45034;BMP280;30771;47.988;-4.186;2022-07-01T17:14:50;101046.25;;;21.74
45034;BMP280;30771;47.988;-4.186;2022-07-01T17:17:17;101033.56;;;21.39
45034;BMP280;30771;47.988;-4.186;2022-07-01T17:19:43;101029.59;;;21.71
45034;BMP280;30771;47.988;-4.186;2022-07-01T17:22:13;101016.25;;;22.12
45034;BMP280;30771;47.988;-4.186;2022-07-01T17:24:58;101022.69;;;22.36
45034;BMP280;30771;47.988;-4.186;2022-07-01T17:28:40;101026.44;;;22.55
45034;BMP280;30771;47.988;-4.186;2022-07-01T17:30:41;101029.66;;;22.52
45034;BMP280;30771;47.988;-4.186;2022-07-01T17:33:10;101030.72;;;22.61
45034;BMP280;30771;47.988;-4.186;2022-07-01T17:35:40;101029.59;;;22.67
45034;BMP280;30771;47.988;-4.186;2022-07-01T17:38:07;101026.69;;;22.63
45034;BMP280;30771;47.988;-4.186;2022-07-01T17:40:42;101022.34;;;22.72
45034;BMP280;30771;47.988;-4.186;2022-07-01T17:43:08;101026.16;;;22.56
45034;BMP280;30771;47.988;-4.186;2022-07-01T17:45:34;101018.84;;;22.72
45034;BMP280;30771;47.988;-4.186;2022-07-01T17:48:00;101008.69;;;23.32
45034;BMP280;30771;47.988;-4.186;2022-07-01T17:50:27;101006.53;;;23.73
45034;BMP280;30771;47.988;-4.186;2022-07-01T17:52:52;100997.56;;;24.16
45034;BMP280;30771;47.988;-4.186;2022-07-01T17:55:20;100995.00;;;24.77
45034;BMP280;30771;47.988;-4.186;2022-07-01T17:57:46;101012.97;;;24.39
45034;BMP280;30771;47.988;-4.186;2022-07-01T18:00:11;101019.72;;;23.74
45034;BMP280;30771;47.988;-4.186;2022-07-01T18:02:38;101031.84;;;23.18
45034;BMP280;30771;47.988;-4.186;2022-07-01T18:05:05;101044.94;;;22.51
45034;BMP280;30771;47.988;-4.186;2022-07-01T18:07:30;101035.56;;;22.39
45034;BMP280;30771;47.988;-4.186;2022-07-01T18:09:55;101037.44;;;22.43
45034;BMP280;30771;47.988;-4.186;2022-07-01T18:17:53;101024.69;;;22.94
45034;BMP280;30771;47.988;-4.186;2022-07-01T18:25:59;101001.31;;;25.65
45034;BMP280;30771;47.988;-4.186;2022-07-01T18:28:29;100996.50;;;27.16
45034;BMP280;30771;47.988;-4.186;2022-07-01T18:30:56;101022.56;;;26.85
45034;BMP280;30771;47.988;-4.186;2022-07-01T18:33:22;101031.31;;;25.45
45034;BMP280;30771;47.988;-4.186;2022-07-01T18:35:51;101048.63;;;24.26
45034;BMP280;30771;47.988;-4.186;2022-07-01T18:38:19;101063.34;;;23.08
45034;BMP280;30771;47.988;-4.186;2022-07-01T18:40:45;101033.81;;;23.95
45034;BMP280;30771;47.988;-4.186;2022-07-01T18:43:11;101020.53;;;25.77
45034;BMP280;30771;47.988;-4.186;2022-07-01T18:45:36;101020.00;;;26.39
45034;BMP280;30771;47.988;-4.186;2022-07-01T18:48:02;101009.94;;;27.73
45034;BMP280;30771;47.988;-4.186;2022-07-01T18:50:28;101007.06;;;28.39
45034;BMP280;30771;47.988;-4.186;2022-07-01T18:52:54;101002.38;;;29.13
45034;BMP280;30771;47.988;-4.186;2022-07-01T18:55:19;101005.00;;;29.64
45034;BMP280;30771;47.988;-4.186;2022-07-01T18:57:47;100995.78;;;30.02
45034;BMP280;30771;47.988;-4.186;2022-07-01T19:00:18;100993.69;;;30.78
45034;BMP280;30771;47.988;-4.186;2022-07-01T19:02:44;100994.13;;;31.21
45034;BMP280;30771;47.988;-4.186;2022-07-01T19:05:10;101000.56;;;31.73
45034;BMP280;30771;47.988;-4.186;2022-07-01T19:07:36;101021.59;;;31.40
45034;BMP280;30771;47.988;-4.186;2022-07-01T19:10:02;101027.06;;;31.07
45034;BMP280;30771;47.988;-4.186;2022-07-01T19:12:29;101018.97;;;30.99
45034;BMP280;30771;47.988;-4.186;2022-07-01T19:14:54;101019.94;;;31.15
45034;BMP280;30771;47.988;-4.186;2022-07-01T19:17:19;101016.63;;;31.54
45034;BMP280;30771;47.988;-4.186;2022-07-01T19:19:45;101011.34;;;31.13
45034;BMP280;30771;47.988;-4.186;2022-07-01T19:22:10;101042.66;;;29.91
45034;BMP280;30771;47.988;-4.186;2022-07-01T19:24:36;101070.25;;;28.18
45034;BMP280;30771;47.988;-4.186;2022-07-01T19:27:01;101070.53;;;26.52
45034;BMP280;30771;47.988;-4.186;2022-07-01T19:29:26;101079.56;;;25.28
45034;BMP280;30771;47.988;-4.186;2022-07-01T19:31:51;101079.41;;;24.15
45034;BMP280;30771;47.988;-4.186;2022-07-01T19:34:17;101092.06;;;23.27
45034;BMP280;30771;47.988;-4.186;2022-07-01T19:36:42;101084.44;;;22.51
45034;BMP280;30771;47.988;-4.186;2022-07-01T19:39:08;101088.94;;;21.90
45034;BMP280;30771;47.988;-4.186;2022-07-01T19:41:33;101088.22;;;21.43
45034;BMP280;30771;47.988;-4.186;2022-07-01T19:43:59;101081.09;;;21.12
45034;BMP280;30771;47.988;-4.186;2022-07-01T19:46:25;101084.41;;;20.82
45034;BMP280;30771;47.988;-4.186;2022-07-01T19:48:51;101080.44;;;20.53
45034;BMP280;30771;47.988;-4.186;2022-07-01T19:51:16;101084.66;;;20.23
45034;BMP280;30771;47.988;-4.186;2022-07-01T19:53:42;101075.53;;;19.92
45034;BMP280;30771;47.988;-4.186;2022-07-01T19:56:07;101080.94;;;19.70
45034;BMP280;30771;47.988;-4.186;2022-07-01T19:58:32;101077.09;;;19.45
45034;BMP280;30771;47.988;-4.186;2022-07-01T20:00:58;101081.28;;;19.19
45034;BMP280;30771;47.988;-4.186;2022-07-01T20:03:23;101079.28;;;18.93
45034;BMP280;30771;47.988;-4.186;2022-07-01T20:05:49;101071.22;;;18.72
45034;BMP280;30771;47.988;-4.186;2022-07-01T20:08:14;101088.75;;;18.51
45034;BMP280;30771;47.988;-4.186;2022-07-01T20:10:40;101078.50;;;18.31
45034;BMP280;30771;47.988;-4.186;2022-07-01T20:13:05;101076.59;;;18.15
45034;BMP280;30771;47.988;-4.186;2022-07-01T20:15:30;101075.59;;;18.05
45034;BMP280;30771;47.988;-4.186;2022-07-01T20:17:56;101077.97;;;17.90
45034;BMP280;30771;47.988;-4.186;2022-07-01T20:20:21;101075.03;;;17.75
45034;BMP280;30771;47.988;-4.186;2022-07-01T20:22:46;101071.44;;;17.58